createdAt,value
2022-12-26T00:00:31.447Z,4.50
2022-12-26T00:02:57.883Z,4.10
2022-12-26T00:05:24.594Z,4.25
2022-12-26T00:07:50.988Z,3.65
2022-12-26T00:10:17.386Z,3.95
2022-12-26T00:12:43.737Z,4.13
2022-12-26T00:15:10.313Z,3.70
2022-12-26T00:17:36.690Z,4.15
2022-12-26T00:20:03.677Z,4.65
2022-12-26T00:22:30.051Z,3.85
2022-12-26T00:24:56.464Z,4.00
2022-12-26T00:27:22.867Z,3.97
2022-12-26T00:29:49.632Z,4.05
2022-12-26T00:32:15.985Z,3.85
2022-12-26T00:34:42.350Z,3.50
2022-12-26T00:37:08.727Z,3.65
2022-12-26T00:39:35.145Z,3.72
2022-12-26T00:42:01.577Z,4.00
2022-12-26T00:44:27.999Z,4.13
2022-12-26T00:46:54.763Z,3.80
2022-12-26T00:49:21.316Z,3.70
2022-12-26T00:51:47.709Z,3.60
2022-12-26T00:54:14.106Z,3.67
2022-12-26T00:56:40.465Z,3.15
2022-12-26T00:59:06.881Z,3.38
2022-12-26T01:01:33.840Z,3.95
2022-12-26T01:04:00.541Z,3.30
2022-12-26T01:06:26.982Z,4.38
2022-12-26T01:08:54.819Z,3.80
2022-12-26T01:11:40.252Z,4.00
2022-12-26T01:14:15.374Z,3.53
2022-12-26T01:16:43.982Z,3.45
2022-12-26T01:19:12.074Z,3.72
2022-12-26T01:21:38.781Z,4.20
2022-12-26T01:24:06.392Z,3.58
2022-12-26T01:26:34.334Z,3.88
2022-12-26T01:29:00.751Z,3.92
2022-12-26T01:31:27.247Z,3.83
2022-12-26T01:33:53.614Z,4.13
2022-12-26T01:36:20.054Z,3.67
2022-12-26T01:38:46.545Z,3.72
2022-12-26T01:41:22.329Z,3.88
2022-12-26T01:43:51.883Z,3.60
2022-12-26T01:46:22.593Z,3.30
2022-12-26T01:48:50.030Z,3.50
2022-12-26T01:51:19.428Z,3.58
2022-12-26T01:53:48.683Z,3.25
2022-12-26T01:56:20.403Z,3.60
2022-12-26T01:59:01.297Z,3.85
2022-12-26T02:01:31.775Z,3.92
2022-12-26T02:04:20.817Z,3.55
2022-12-26T02:06:47.294Z,3.90
2022-12-26T02:09:13.677Z,3.70
2022-12-26T02:11:49.670Z,3.22
2022-12-26T02:14:37.496Z,3.40
2022-12-26T02:17:04.662Z,4.10
2022-12-26T02:19:52.608Z,3.55
2022-12-26T02:22:53.186Z,2.97
2022-12-26T02:25:53.786Z,3.53
2022-12-26T02:28:49.128Z,3.50
2022-12-26T02:31:52.943Z,3.63
2022-12-26T02:37:31.881Z,3.65
2022-12-26T02:40:15.810Z,3.55
2022-12-26T02:43:01.680Z,3.42
2022-12-26T02:45:59.566Z,3.45
2022-12-26T02:48:55.123Z,3.88
2022-12-26T02:52:08.801Z,2.92
2022-12-26T02:55:12.219Z,3.55
2022-12-26T02:58:10.138Z,4.00
2022-12-26T03:00:58.685Z,3.67
2022-12-26T03:03:49.495Z,3.70
2022-12-26T03:06:42.830Z,3.88
2022-12-26T03:09:34.203Z,3.20
2022-12-26T03:12:25.998Z,3.42
2022-12-26T03:14:57.685Z,3.33
2022-12-26T03:17:30.882Z,3.38
2022-12-26T03:20:03.555Z,3.00
2022-12-26T03:22:43.257Z,2.75
2022-12-26T03:25:38.309Z,3.45
2022-12-26T03:28:04.679Z,3.72
2022-12-26T03:30:49.664Z,3.33
2022-12-26T03:33:35.810Z,3.20
2022-12-26T03:36:02.901Z,3.22
2022-12-26T03:38:51.003Z,3.35
2022-12-26T03:41:47.445Z,2.90
2022-12-26T03:44:53.708Z,3.45
2022-12-26T03:47:47.683Z,3.00
2022-12-26T03:50:56.839Z,3.13
2022-12-26T03:53:49.204Z,3.92
2022-12-26T03:56:51.713Z,4.10
2022-12-26T03:59:47.766Z,3.92
2022-12-26T04:02:35.293Z,2.80
2022-12-26T04:05:24.229Z,3.30
2022-12-26T04:08:18.539Z,3.25
2022-12-26T04:11:14.795Z,2.78
2022-12-26T04:14:15.486Z,2.47
2022-12-26T04:17:25.918Z,3.03
2022-12-26T04:20:16.322Z,2.90
2022-12-26T04:23:11.817Z,2.92
2022-12-26T04:26:05.085Z,3.20
2022-12-26T04:28:49.948Z,3.00
2022-12-26T04:31:45.401Z,2.90
2022-12-26T04:34:49.403Z,2.80
2022-12-26T04:37:42.943Z,3.45
2022-12-26T04:40:34.509Z,3.35
2022-12-26T04:43:48.080Z,2.65
2022-12-26T04:46:07.426Z,3.13
2022-12-26T04:49:00.446Z,2.88
2022-12-26T04:51:26.868Z,3.08
2022-12-26T04:53:53.245Z,2.85
2022-12-26T04:56:19.760Z,2.63
2022-12-26T04:58:46.179Z,2.90
2022-12-26T05:01:31.373Z,2.42
2022-12-26T05:04:16.463Z,2.60
2022-12-26T05:07:01.934Z,2.80
2022-12-26T05:09:34.521Z,2.28
2022-12-26T05:12:06.304Z,2.72
2022-12-26T05:14:35.666Z,2.40
2022-12-26T05:17:21.383Z,2.85
2022-12-26T05:20:07.305Z,3.00
2022-12-26T05:22:56.643Z,2.60
2022-12-26T05:25:53.840Z,2.88
2022-12-26T05:28:39.903Z,2.78
2022-12-26T05:31:07.095Z,2.55
2022-12-26T05:33:52.201Z,2.47
2022-12-26T05:36:21.365Z,2.83
2022-12-26T05:38:48.348Z,2.20
2022-12-26T05:41:15.379Z,2.42
2022-12-26T05:43:41.716Z,2.40
2022-12-26T05:46:08.211Z,2.47
2022-12-26T05:48:34.715Z,2.60
2022-12-26T05:51:02.720Z,2.97
2022-12-26T05:53:30.452Z,2.92
2022-12-26T05:56:03.407Z,2.15
2022-12-26T05:58:29.930Z,2.20
2022-12-26T06:01:08.789Z,2.20
2022-12-26T06:03:35.921Z,2.47
2022-12-26T06:06:02.699Z,2.15
2022-12-26T06:08:29.251Z,2.45
2022-12-26T06:10:55.613Z,2.45
2022-12-26T06:13:22.157Z,2.53
2022-12-26T06:15:48.651Z,2.50
2022-12-26T06:18:15.248Z,2.20
2022-12-26T06:20:41.650Z,2.45
2022-12-26T06:23:08.084Z,2.60
2022-12-26T06:25:34.604Z,2.80
2022-12-26T06:28:00.965Z,2.28
2022-12-26T06:30:27.306Z,2.75
2022-12-26T06:32:53.753Z,2.40
2022-12-26T06:35:20.119Z,2.50
2022-12-26T06:37:46.584Z,2.08
2022-12-26T06:40:12.941Z,2.67
2022-12-26T06:42:39.358Z,2.50
2022-12-26T06:45:06.047Z,2.47
2022-12-26T06:47:32.467Z,3.20
2022-12-26T06:49:58.901Z,3.00
2022-12-26T06:52:25.351Z,3.00
2022-12-26T06:54:51.727Z,2.63
2022-12-26T06:57:18.142Z,2.58
2022-12-26T06:59:44.554Z,3.05
2022-12-26T07:02:11.345Z,3.13
2022-12-26T07:04:37.734Z,2.45
2022-12-26T07:07:04.225Z,2.88
2022-12-26T07:09:33.898Z,2.70
2022-12-26T07:12:00.905Z,3.10
2022-12-26T07:14:27.393Z,2.80
2022-12-26T07:16:53.880Z,2.65
2022-12-26T07:19:20.428Z,2.63
2022-12-26T07:21:46.881Z,2.28
2022-12-26T07:24:15.781Z,2.85
2022-12-26T07:26:42.783Z,2.22
2022-12-26T07:29:10.923Z,2.05
2022-12-26T07:31:37.637Z,2.53
2022-12-26T07:34:04.192Z,4.30
2022-12-26T07:36:30.691Z,2.78
2022-12-26T07:38:57.391Z,2.85
2022-12-26T07:41:42.845Z,2.80
2022-12-26T07:44:10.919Z,2.42
2022-12-26T07:46:37.619Z,3.85
2022-12-26T07:49:04.295Z,2.60
2022-12-26T07:51:30.703Z,3.00
2022-12-26T07:53:57.242Z,3.05
2022-12-26T07:56:23.961Z,2.80
2022-12-26T07:58:51.418Z,2.80
2022-12-26T08:01:18.634Z,3.03
2022-12-26T08:03:48.102Z,3.10
2022-12-26T08:06:14.791Z,2.78
2022-12-26T08:08:46.876Z,2.63
2022-12-26T08:11:20.265Z,3.53
2022-12-26T08:13:46.993Z,2.83
2022-12-26T08:16:14.796Z,2.70
2022-12-26T08:18:41.564Z,3.22
2022-12-26T08:21:08.037Z,2.67
2022-12-26T08:23:34.917Z,2.30
2022-12-26T08:26:09.000Z,3.05
2022-12-26T08:28:35.834Z,4.50
2022-12-26T08:31:10.440Z,3.10
2022-12-26T08:33:36.940Z,3.05
2022-12-26T08:36:09.620Z,3.03
2022-12-26T08:38:37.047Z,2.88
2022-12-26T08:41:03.735Z,2.50
2022-12-26T08:44:24.847Z,2.80
2022-12-26T08:46:18.203Z,3.10
2022-12-26T08:48:45.487Z,2.42
2022-12-26T08:51:17.606Z,3.90
2022-12-26T08:53:45.789Z,3.25
2022-12-26T08:56:20.963Z,2.85
2022-12-26T08:58:47.928Z,2.35
2022-12-26T09:01:19.866Z,2.40
2022-12-26T09:03:47.397Z,2.35
2022-12-26T09:06:15.231Z,2.70
2022-12-26T09:08:42.451Z,2.70
2022-12-26T09:11:17.379Z,2.92
2022-12-26T09:13:44.834Z,3.17
2022-12-26T09:16:13.238Z,3.13
2022-12-26T09:18:40.403Z,3.17
2022-12-26T09:21:09.574Z,3.25
2022-12-26T09:23:36.865Z,2.55
2022-12-26T09:26:09.186Z,2.90
2022-12-26T09:28:36.516Z,2.75
2022-12-26T09:31:06.294Z,2.55
2022-12-26T09:33:33.716Z,2.88
2022-12-26T09:36:04.537Z,2.58
2022-12-26T09:38:34.704Z,2.85
2022-12-26T09:41:23.447Z,2.95
2022-12-26T09:44:15.279Z,2.80
2022-12-26T09:46:58.977Z,2.85
2022-12-26T09:49:34.021Z,2.60
2022-12-26T09:52:10.352Z,2.85
2022-12-26T09:54:43.265Z,2.78
2022-12-26T09:57:19.985Z,3.60
2022-12-26T09:59:57.123Z,2.53
2022-12-26T10:02:26.254Z,2.80
2022-12-26T10:04:54.711Z,2.25
2022-12-26T10:07:38.044Z,2.15
2022-12-26T10:12:42.261Z,1.90
2022-12-26T10:15:29.279Z,1.77
2022-12-26T10:18:09.966Z,1.65
2022-12-26T10:20:54.629Z,2.10
2022-12-26T10:23:42.228Z,1.35
2022-12-26T10:26:22.040Z,2.00
2022-12-26T10:29:01.686Z,1.70
2022-12-26T10:31:44.901Z,1.30
2022-12-26T10:34:25.662Z,1.70
2022-12-26T10:37:18.255Z,1.30
2022-12-26T10:40:01.932Z,1.13
2022-12-26T10:42:38.729Z,1.80
2022-12-26T10:45:17.379Z,1.58
2022-12-26T10:47:49.537Z,1.58
2022-12-26T10:50:27.702Z,1.47
2022-12-26T10:52:55.770Z,1.50
2022-12-26T10:55:31.595Z,1.27
2022-12-26T10:58:20.009Z,1.00
2022-12-26T11:00:46.979Z,1.30
2022-12-26T11:03:18.540Z,1.52
2022-12-26T11:06:07.625Z,1.25
2022-12-26T11:08:43.043Z,0.65
2022-12-26T11:11:48.005Z,1.05
2022-12-26T11:14:34.127Z,1.20
2022-12-26T11:17:05.791Z,0.73
2022-12-26T11:19:35.635Z,1.05
2022-12-26T11:22:21.822Z,1.10
2022-12-26T11:25:21.467Z,1.00
2022-12-26T11:27:56.675Z,0.80
2022-12-26T11:30:24.677Z,1.17
2022-12-26T11:33:09.959Z,0.90
2022-12-26T11:36:06.451Z,1.45
2022-12-26T11:38:45.415Z,0.95
2022-12-26T11:41:36.476Z,0.65
2022-12-26T11:44:15.311Z,1.13
2022-12-26T11:46:56.395Z,1.02
2022-12-26T11:49:59.589Z,0.98
2022-12-26T11:52:43.486Z,0.98
2022-12-26T11:55:28.035Z,1.70
2022-12-26T11:58:00.066Z,1.00
2022-12-26T12:00:27.221Z,1.20
2022-12-26T12:02:54.156Z,0.90
2022-12-26T12:05:34.944Z,1.10
2022-12-26T12:08:38.576Z,0.60
2022-12-26T12:11:30.086Z,1.20
2022-12-26T12:14:11.855Z,1.67
2022-12-26T12:16:47.246Z,1.10
2022-12-26T12:19:28.319Z,1.27
2022-12-26T12:22:05.099Z,1.00
2022-12-26T12:24:57.406Z,1.08
2022-12-26T12:27:33.767Z,1.35
2022-12-26T12:30:20.619Z,1.08
2022-12-26T12:33:05.942Z,1.15
2022-12-26T12:35:35.412Z,1.05
2022-12-26T12:38:20.554Z,1.30
2022-12-26T12:41:00.113Z,1.10
2022-12-26T12:43:33.975Z,1.38
2022-12-26T12:46:45.423Z,1.30
2022-12-26T12:49:34.855Z,1.08
2022-12-26T12:52:16.413Z,1.00
2022-12-26T12:55:04.050Z,0.80
2022-12-26T12:57:42.710Z,1.00
2022-12-26T13:00:17.458Z,1.50
2022-12-26T13:02:52.745Z,1.90
2022-12-26T13:05:43.872Z,1.27
2022-12-26T13:08:28.984Z,0.80
2022-12-26T13:11:07.391Z,1.38
2022-12-26T13:13:48.619Z,1.33
2022-12-26T13:16:27.425Z,1.30
2022-12-26T13:19:02.620Z,1.10
2022-12-26T13:21:34.762Z,1.02
2022-12-26T13:24:31.571Z,1.23
2022-12-26T13:27:11.213Z,1.35
2022-12-26T13:29:45.888Z,1.25
2022-12-26T13:32:23.910Z,1.30
2022-12-26T13:34:52.742Z,1.10
2022-12-26T13:37:37.459Z,1.17
2022-12-26T13:40:16.422Z,1.40
2022-12-26T13:43:10.200Z,1.08
2022-12-26T13:45:42.363Z,1.30
2022-12-26T13:48:32.214Z,1.05
2022-12-26T13:51:01.398Z,1.73
2022-12-26T13:53:32.356Z,1.50
2022-12-26T13:56:36.231Z,1.60
2022-12-26T13:59:08.206Z,1.00
2022-12-26T14:01:46.787Z,1.05
2022-12-26T14:04:45.028Z,0.98
2022-12-26T14:07:34.296Z,1.02
2022-12-26T14:10:28.638Z,1.08
2022-12-26T14:13:07.787Z,1.10
2022-12-26T14:15:49.748Z,1.02
2022-12-26T14:18:31.189Z,1.15
2022-12-26T14:21:29.983Z,0.85
2022-12-26T14:24:17.999Z,1.25
2022-12-26T14:27:11.364Z,2.38
2022-12-26T14:30:17.149Z,1.42
2022-12-26T14:33:12.816Z,1.40
2022-12-26T14:35:52.937Z,1.23
2022-12-26T14:38:47.634Z,1.38
2022-12-26T14:41:46.337Z,1.42
2022-12-26T14:44:21.812Z,1.05
2022-12-26T14:46:48.162Z,1.02
2022-12-26T14:49:35.559Z,0.90
2022-12-26T14:52:32.273Z,0.63
2022-12-26T14:54:58.827Z,0.75
2022-12-26T14:57:44.394Z,0.73
2022-12-26T15:00:15.431Z,1.13
2022-12-26T15:02:48.050Z,0.80
2022-12-26T15:05:25.298Z,0.68
2022-12-26T15:08:10.204Z,1.10
2022-12-26T15:10:36.702Z,1.50
2022-12-26T15:13:32.834Z,0.93
2022-12-26T15:16:25.361Z,5.35
2022-12-26T15:19:02.067Z,1.30
2022-12-26T15:22:15.820Z,1.10
2022-12-26T15:28:15.982Z,0.85
2022-12-26T15:31:06.828Z,0.85
2022-12-26T15:33:48.847Z,1.35
2022-12-26T15:36:33.874Z,0.80
2022-12-26T15:39:24.232Z,0.50
2022-12-26T15:42:02.429Z,0.85
2022-12-26T15:44:42.635Z,1.58
2022-12-26T15:47:21.164Z,0.80
2022-12-26T15:50:12.223Z,0.80
2022-12-26T15:53:07.588Z,0.90
2022-12-26T15:55:57.373Z,0.93
2022-12-26T15:58:46.813Z,2.92
2022-12-26T16:01:13.558Z,2.97
2022-12-26T16:03:56.585Z,2.63
2022-12-26T16:06:45.547Z,0.85
2022-12-26T16:09:47.592Z,1.55
2022-12-26T16:12:32.201Z,2.40
2022-12-26T16:15:10.780Z,1.60
2022-12-26T16:17:38.731Z,1.10
2022-12-26T16:20:55.585Z,0.90
2022-12-26T16:23:25.025Z,0.82
2022-12-26T16:25:53.839Z,1.90
2022-12-26T16:28:31.222Z,1.25
2022-12-26T16:30:58.505Z,1.63
2022-12-26T16:33:25.921Z,1.40
2022-12-26T16:35:56.254Z,0.90
2022-12-26T16:38:30.079Z,0.90
2022-12-26T16:40:57.994Z,1.27
2022-12-26T16:43:28.494Z,1.00
2022-12-26T16:46:00.390Z,1.00
2022-12-26T16:48:29.383Z,1.20
2022-12-26T16:51:05.607Z,1.48
2022-12-26T16:53:34.754Z,1.20
2022-12-26T16:56:28.926Z,0.65
2022-12-26T16:59:17.278Z,1.23
2022-12-26T17:01:50.534Z,1.40
2022-12-26T17:04:30.109Z,2.20
2022-12-26T17:07:00.871Z,2.58
2022-12-26T17:09:31.717Z,2.17
2022-12-26T17:12:18.687Z,1.55
2022-12-26T17:14:48.691Z,2.80
2022-12-26T17:17:24.092Z,1.00
2022-12-26T17:19:54.391Z,0.63
2022-12-26T17:22:35.683Z,1.05
2022-12-26T17:25:33.510Z,2.05
2022-12-26T17:28:08.316Z,1.65
2022-12-26T17:30:37.184Z,1.30
2022-12-26T17:33:25.778Z,2.20
2022-12-26T17:38:46.100Z,0.98
2022-12-26T17:41:16.142Z,1.05
2022-12-26T17:43:44.463Z,5.32
2022-12-26T17:46:14.323Z,8.40
2022-12-26T17:48:42.089Z,4.22
2022-12-26T17:51:15.672Z,4.10
2022-12-26T17:53:46.886Z,2.90
2022-12-26T17:56:21.213Z,2.00
2022-12-26T17:58:48.709Z,2.28
2022-12-26T18:01:20.949Z,2.35
2022-12-26T18:03:49.200Z,2.20
2022-12-26T18:06:16.543Z,2.38
2022-12-26T18:08:44.716Z,1.30
2022-12-26T18:11:14.760Z,1.10
2022-12-26T18:13:43.129Z,1.00
2022-12-26T18:16:15.219Z,1.52
2022-12-26T18:18:44.480Z,1.20
2022-12-26T18:21:13.217Z,0.88
2022-12-26T18:23:40.363Z,1.00
2022-12-26T18:26:23.118Z,0.90
2022-12-26T18:28:50.316Z,0.90
2022-12-26T18:31:16.980Z,0.90
2022-12-26T18:33:44.299Z,0.73
2022-12-26T18:36:13.406Z,0.50
2022-12-26T18:38:40.320Z,0.63
2022-12-26T18:41:07.262Z,1.00
2022-12-26T18:43:34.228Z,0.50
2022-12-26T18:46:01.453Z,2.70
2022-12-26T18:48:27.968Z,7.22
2022-12-26T18:50:54.669Z,1.20
2022-12-26T18:53:21.369Z,0.70
2022-12-26T18:55:47.750Z,0.55
2022-12-26T18:58:14.395Z,0.90
2022-12-26T19:00:40.799Z,0.60
2022-12-26T19:03:07.194Z,1.00
2022-12-26T19:05:34.618Z,1.15
2022-12-26T19:08:02.181Z,1.45
2022-12-26T19:10:31.661Z,1.80
2022-12-26T19:13:05.612Z,3.40
2022-12-26T19:15:34.493Z,1.48
2022-12-26T19:18:01.453Z,1.10
2022-12-26T19:20:29.066Z,0.90
2022-12-26T19:22:56.127Z,0.45
2022-12-26T19:25:24.857Z,0.57
2022-12-26T19:27:55.737Z,0.85
2022-12-26T19:30:23.068Z,10.13
2022-12-26T19:32:50.794Z,7.53
2022-12-26T19:35:19.135Z,5.57
2022-12-26T19:37:45.676Z,2.83
2022-12-26T19:40:18.423Z,1.77
2022-12-26T19:42:49.704Z,1.40
2022-12-26T19:45:16.520Z,1.60
2022-12-26T19:47:43.019Z,2.13
2022-12-26T19:50:11.635Z,2.33
2022-12-26T19:52:38.718Z,1.73
2022-12-26T19:55:06.476Z,1.33
2022-12-26T19:57:33.300Z,0.90
2022-12-26T19:59:59.738Z,0.85
2022-12-26T20:02:26.378Z,1.15
2022-12-26T20:04:52.894Z,0.90
2022-12-26T20:07:19.328Z,0.82
2022-12-26T20:09:45.696Z,0.65
2022-12-26T20:12:12.074Z,0.77
2022-12-26T20:14:38.505Z,0.52
2022-12-26T20:17:07.253Z,0.55
2022-12-26T20:19:35.289Z,0.80
2022-12-26T20:22:01.790Z,0.73
2022-12-26T20:24:28.174Z,0.90
2022-12-26T20:26:54.621Z,1.52
2022-12-26T20:29:21.051Z,1.50
2022-12-26T20:31:47.600Z,1.10
2022-12-26T20:34:14.271Z,1.40
2022-12-26T20:36:41.450Z,1.00
2022-12-26T20:39:12.664Z,0.70
2022-12-26T20:41:39.096Z,0.80
2022-12-26T20:44:05.581Z,0.60
2022-12-26T20:46:35.204Z,1.05
2022-12-26T20:49:04.456Z,0.80
2022-12-26T20:51:37.536Z,0.73
2022-12-26T20:54:06.060Z,0.90
2022-12-26T20:56:32.485Z,1.13
2022-12-26T20:58:59.536Z,0.90
2022-12-26T21:01:27.789Z,0.70
2022-12-26T21:03:56.227Z,0.57
2022-12-26T21:06:29.174Z,1.10
2022-12-26T21:08:57.577Z,0.90
2022-12-26T21:11:28.112Z,0.80
2022-12-26T21:13:57.370Z,0.75
2022-12-26T21:16:25.653Z,1.10
2022-12-26T21:18:52.482Z,0.98
2022-12-26T21:21:22.628Z,1.00
2022-12-26T21:23:50.624Z,0.88
2022-12-26T21:26:17.018Z,0.70
2022-12-26T21:28:43.570Z,1.08
2022-12-26T21:31:11.658Z,1.20
2022-12-26T21:33:44.183Z,1.02
2022-12-26T21:38:38.736Z,0.77
2022-12-26T21:41:09.605Z,1.13
2022-12-26T21:43:36.146Z,0.63
2022-12-26T21:46:12.593Z,0.70
2022-12-26T21:48:39.337Z,0.60
2022-12-26T21:51:09.270Z,0.80
2022-12-26T21:53:36.081Z,0.63
2022-12-26T21:56:07.336Z,0.70
2022-12-26T21:58:53.040Z,0.80
2022-12-26T22:01:21.516Z,0.82
2022-12-26T22:04:07.574Z,0.90
2022-12-26T22:06:34.194Z,0.77
2022-12-26T22:09:01.213Z,0.90
2022-12-26T22:11:46.693Z,1.33
2022-12-26T22:14:13.349Z,1.60
2022-12-26T22:16:40.040Z,1.45
2022-12-26T22:19:07.410Z,1.48
2022-12-26T22:21:34.143Z,1.42
2022-12-26T22:24:00.802Z,0.93
2022-12-26T22:26:28.828Z,1.10
2022-12-26T22:28:56.965Z,1.52
2022-12-26T22:31:26.884Z,1.17
2022-12-26T22:33:55.907Z,0.95
2022-12-26T22:36:22.419Z,0.90
2022-12-26T22:38:48.817Z,1.10
2022-12-26T22:41:15.239Z,0.80
2022-12-26T22:43:43.205Z,1.35
2022-12-26T22:46:10.151Z,1.13
2022-12-26T22:48:36.684Z,0.77
2022-12-26T22:51:03.280Z,1.33
2022-12-26T22:53:30.472Z,1.08
2022-12-26T22:56:02.562Z,0.90
2022-12-26T22:58:30.649Z,0.90
2022-12-26T23:00:57.617Z,0.80
2022-12-26T23:03:25.601Z,1.10
2022-12-26T23:05:53.374Z,0.82
2022-12-26T23:08:23.853Z,1.08
2022-12-26T23:10:56.284Z,0.90
2022-12-26T23:13:24.231Z,1.02
2022-12-26T23:16:02.109Z,1.08
2022-12-26T23:19:02.294Z,1.15
2022-12-26T23:21:43.590Z,1.15
2022-12-26T23:24:16.778Z,1.08
2022-12-26T23:26:46.707Z,1.30
2022-12-26T23:29:38.235Z,1.10
2022-12-26T23:32:05.952Z,1.63
2022-12-26T23:34:32.361Z,1.33
2022-12-26T23:36:58.976Z,1.50
2022-12-26T23:39:25.525Z,1.60
2022-12-26T23:41:52.112Z,1.38
2022-12-26T23:44:18.802Z,1.73
2022-12-26T23:46:45.264Z,1.98
2022-12-26T23:49:15.396Z,1.52
2022-12-26T23:51:42.669Z,2.20
2022-12-26T23:54:09.744Z,2.03
2022-12-26T23:56:37.176Z,1.63
2022-12-26T23:59:04.625Z,2.35
